Alpine, Idaho
Current Conditions -  °F | °C
As of 3:51 PM on Tuesday 25 Nov 2014 (Local Time) from KMYL Reporting Station
Light Rain Light Rain  
Wind Chill: 35°   Ceiling: 500
Heat Index: 35°   Visibility: 6mi
Dew Point: 34°   Wind: 3mph
Humidity: 96%   Direction: 30°NNE
Pressure: 30.18"   Gusts: NA
Location:  44.6782°N, 116.766°W
Report Text: KMYL 252251Z AUTO 03003KT 6SM -RA BR BKN005 OVC010 02/01 A3018 RMK AO2 RAE00B34 SLP242 P0000 T00170011
Loading
Personal Weather Stations






























Interactive Weather Map New forecast layout! Learn more

10-Day Weather Forecast

Advertisements
Track Severe Weather on mobile